Time;durP1;ratioP1;P1;durP2;ratioP2;P2;SDS_P1;SDS_P2;PMS_P1;PMS_P2;Temp;Humidity;BMP_temperature;BMP_pressure;BME280_temperature;BME280_humidity;BME280_pressure;Samples;Min_cycle;Max_cycle;Signal;HPM_P1;HPM_P2
2023/06/28 00:00:42;;;;;;;4.45;2.00;;;;;;;;;;4990197;28;20547;-64
2023/06/28 00:03:10;;;;;;;6.88;2.10;;;;;;;;;;4992655;28;20089;-64
2023/06/28 00:05:36;;;;;;;5.18;1.92;;;;;;;;;;4991201;28;20034;-64
2023/06/28 00:08:02;;;;;;;6.03;2.25;;;;;;;;;;4989670;28;21597;-66
2023/06/28 00:10:27;;;;;;;6.88;2.30;;;;;;;;;;4994455;28;20038;-63
2023/06/28 00:12:53;;;;;;;4.88;2.15;;;;;;;;;;4996502;28;20089;-64
2023/06/28 00:15:18;;;;;;;4.88;1.80;;;;;;;;;;4994884;28;20034;-63
2023/06/28 00:17:43;;;;;;;4.13;2.08;;;;;;;;;;4996825;28;20034;-64
2023/06/28 00:20:10;;;;;;;4.10;2.20;;;;;;;;;;5002793;28;20487;-64
2023/06/28 00:22:36;;;;;;;5.82;2.00;;;;;;;;;;4999020;28;20030;-64
2023/06/28 00:25:05;;;;;;;6.43;2.20;;;;;;;;;;5002388;28;20113;-63
2023/06/28 00:27:30;;;;;;;4.63;2.13;;;;;;;;;;5000256;28;20096;-66
2023/06/28 00:29:57;;;;;;;4.57;2.10;;;;;;;;;;4992080;28;20530;-63
2023/06/28 00:32:25;;;;;;;5.50;2.20;;;;;;;;;;4991601;28;20467;-63
2023/06/28 00:34:50;;;;;;;7.28;2.13;;;;;;;;;;4991757;28;20045;-64
2023/06/28 00:37:16;;;;;;;3.65;2.08;;;;;;;;;;4990666;28;20034;-64
2023/06/28 00:39:41;;;;;;;6.78;2.30;;;;;;;;;;4989240;28;20066;-64
2023/06/28 00:42:07;;;;;;;3.70;2.00;;;;;;;;;;4992076;28;20487;-63
2023/06/28 00:44:33;;;;;;;4.97;2.05;;;;;;;;;;4990958;28;20360;-63
2023/06/28 00:47:00;;;;;;;4.72;2.15;;;;;;;;;;4991730;28;20037;-63
2023/06/28 00:49:30;;;;;;;3.95;1.90;;;;;;;;;;4990131;28;20037;-63
2023/06/28 00:51:55;;;;;;;5.97;2.50;;;;;;;;;;4990803;28;20193;-63
2023/06/28 00:54:22;;;;;;;4.28;2.22;;;;;;;;;;4991063;28;20121;-64
2023/06/28 00:56:48;;;;;;;6.38;2.38;;;;;;;;;;4994095;28;20092;-63
2023/06/28 00:59:17;;;;;;;6.32;2.63;;;;;;;;;;4995844;28;20053;-64
2023/06/28 01:01:43;;;;;;;4.63;2.45;;;;;;;;;;4995018;28;20499;-63
2023/06/28 01:04:09;;;;;;;6.72;2.35;;;;;;;;;;4995507;28;20034;-63
2023/06/28 01:06:37;;;;;;;6.90;2.60;;;;;;;;;;4994704;28;20033;-63
2023/06/28 01:09:04;;;;;;;6.55;2.70;;;;;;;;;;4993028;28;20534;-63
2023/06/28 01:11:31;;;;;;;5.28;2.50;;;;;;;;;;4993855;28;20034;-63
2023/06/28 01:13:57;;;;;;;5.75;2.60;;;;;;;;;;4995288;28;20041;-63
2023/06/28 01:16:23;;;;;;;6.80;2.55;;;;;;;;;;4995448;28;20109;-63
2023/06/28 01:18:48;;;;;;;5.10;2.70;;;;;;;;;;4994722;28;20613;-63
2023/06/28 01:21:16;;;;;;;6.25;2.50;;;;;;;;;;4994553;28;20035;-64
2023/06/28 01:23:41;;;;;;;5.05;2.55;;;;;;;;;;4994536;28;20498;-63
2023/06/28 01:26:08;;;;;;;8.27;2.40;;;;;;;;;;4994838;28;20066;-63
2023/06/28 01:28:34;;;;;;;6.13;2.50;;;;;;;;;;4994343;28;20034;-63
2023/06/28 01:31:00;;;;;;;6.03;2.38;;;;;;;;;;4994537;28;20034;-64
2023/06/28 01:33:26;;;;;;;4.95;2.40;;;;;;;;;;4994346;28;20053;-63
2023/06/28 01:35:51;;;;;;;6.68;2.70;;;;;;;;;;4993657;28;20065;-64
2023/06/28 01:38:18;;;;;;;6.72;2.85;;;;;;;;;;4994182;28;20061;-63
2023/06/28 01:40:44;;;;;;;5.78;2.58;;;;;;;;;;4994030;28;20030;-64
2023/06/28 01:43:10;;;;;;;7.82;2.55;;;;;;;;;;4994385;28;20081;-64
2023/06/28 01:45:36;;;;;;;7.38;2.80;;;;;;;;;;4992765;28;20092;-64
2023/06/28 01:48:03;;;;;;;6.38;2.80;;;;;;;;;;4994688;28;20541;-63
2023/06/28 01:50:29;;;;;;;5.63;2.40;;;;;;;;;;4993223;28;20034;-63
2023/06/28 01:52:59;;;;;;;5.75;2.42;;;;;;;;;;4992032;28;20034;-63
2023/06/28 01:55:25;;;;;;;6.15;2.58;;;;;;;;;;4992843;28;20038;-64
2023/06/28 01:57:51;;;;;;;5.30;2.70;;;;;;;;;;4992794;28;20030;-64
2023/06/28 02:00:16;;;;;;;6.95;2.97;;;;;;;;;;4994237;28;20030;-64
2023/06/28 02:02:42;;;;;;;5.97;2.95;;;;;;;;;;4993816;28;20030;-63
2023/06/28 02:05:08;;;;;;;6.85;2.80;;;;;;;;;;4993604;28;20490;-64
2023/06/28 02:07:33;;;;;;;6.30;2.90;;;;;;;;;;4993868;28;20030;-64
2023/06/28 02:09:58;;;;;;;7.07;3.17;;;;;;;;;;4992534;28;20030;-64
2023/06/28 02:12:24;;;;;;;6.40;2.65;;;;;;;;;;4994619;28;20077;-64
2023/06/28 02:14:52;;;;;;;7.75;2.63;;;;;;;;;;4993408;28;20030;-63
2023/06/28 02:17:20;;;;;;;8.25;2.90;;;;;;;;;;4991146;28;20038;-63
2023/06/28 02:19:47;;;;;;;4.72;2.80;;;;;;;;;;4991081;28;20030;-64
2023/06/28 02:22:13;;;;;;;5.30;2.40;;;;;;;;;;4994201;28;20034;-63
2023/06/28 02:24:39;;;;;;;6.20;2.50;;;;;;;;;;4992496;28;20062;-64
2023/06/28 02:27:04;;;;;;;5.60;2.55;;;;;;;;;;4992881;28;20077;-63
2023/06/28 02:29:30;;;;;;;5.85;2.53;;;;;;;;;;4994269;28;20034;-64
2023/06/28 02:31:56;;;;;;;5.68;2.53;;;;;;;;;;4991824;28;20134;-64
2023/06/28 02:34:21;;;;;;;4.20;2.55;;;;;;;;;;4989987;28;20113;-63
2023/06/28 02:36:47;;;;;;;8.25;2.40;;;;;;;;;;4993209;28;20118;-63
2023/06/28 02:39:12;;;;;;;5.10;2.70;;;;;;;;;;4993595;28;20364;-64
2023/06/28 02:41:37;;;;;;;4.80;2.35;;;;;;;;;;4992812;28;20074;-64
2023/06/28 02:44:03;;;;;;;6.95;3.15;;;;;;;;;;5007803;28;20378;-64
2023/06/28 02:46:28;;;;;;;9.02;2.90;;;;;;;;;;4993563;28;20057;-63
2023/06/28 02:48:54;;;;;;;4.20;2.78;;;;;;;;;;4992830;28;20692;-64
2023/06/28 02:51:19;;;;;;;5.70;2.72;;;;;;;;;;4993877;28;20613;-64
2023/06/28 02:53:44;;;;;;;7.22;2.90;;;;;;;;;;4992806;28;20034;-63
2023/06/28 02:56:15;;;;;;;7.25;3.30;;;;;;;;;;4991384;28;20549;-63
2023/06/28 02:58:41;;;;;;;8.02;3.10;;;;;;;;;;4992546;28;20026;-64
2023/06/28 03:01:07;;;;;;;9.10;3.53;;;;;;;;;;4990659;28;20041;-64
2023/06/28 03:03:34;;;;;;;4.97;2.80;;;;;;;;;;4983116;28;20042;-63
2023/06/28 03:06:00;;;;;;;5.90;2.95;;;;;;;;;;4982112;28;20037;-64
2023/06/28 03:08:25;;;;;;;6.72;3.28;;;;;;;;;;4992418;28;20057;-63
2023/06/28 03:10:51;;;;;;;7.30;2.88;;;;;;;;;;4991751;28;20459;-63
2023/06/28 03:13:16;;;;;;;7.13;3.30;;;;;;;;;;4990117;28;20126;-65
2023/06/28 03:15:41;;;;;;;7.47;3.22;;;;;;;;;;4991050;28;20490;-64
2023/06/28 03:18:07;;;;;;;5.97;3.10;;;;;;;;;;4992592;28;20037;-65
2023/06/28 03:20:33;;;;;;;6.07;2.97;;;;;;;;;;4993177;28;20034;-64
2023/06/28 03:22:58;;;;;;;6.30;3.03;;;;;;;;;;4991587;28;20180;-63
2023/06/28 03:25:23;;;;;;;6.60;2.90;;;;;;;;;;4991865;28;20109;-63
2023/06/28 03:27:49;;;;;;;9.25;3.25;;;;;;;;;;4992061;28;20066;-62
2023/06/28 03:30:15;;;;;;;7.38;3.17;;;;;;;;;;4991321;28;20037;-62
2023/06/28 03:32:40;;;;;;;8.30;3.40;;;;;;;;;;4992047;28;20073;-62
2023/06/28 03:35:06;;;;;;;8.63;3.22;;;;;;;;;;4993000;28;20049;-63
2023/06/28 03:37:32;;;;;;;4.75;2.97;;;;;;;;;;4991871;28;20046;-62
2023/06/28 03:39:57;;;;;;;6.07;3.05;;;;;;;;;;4992023;28;20030;-61
2023/06/28 03:42:22;;;;;;;7.28;3.33;;;;;;;;;;4992913;28;20065;-62
2023/06/28 03:44:48;;;;;;;6.25;3.30;;;;;;;;;;4990801;28;20065;-62
2023/06/28 03:47:13;;;;;;;15.13;3.30;;;;;;;;;;4991522;28;20023;-63
2023/06/28 03:49:40;;;;;;;6.80;3.40;;;;;;;;;;4992078;28;20030;-62
2023/06/28 03:52:06;;;;;;;7.10;3.28;;;;;;;;;;4990850;28;20113;-62
2023/06/28 03:54:32;;;;;;;5.97;3.22;;;;;;;;;;4991443;28;20501;-62
2023/06/28 03:56:58;;;;;;;6.82;3.30;;;;;;;;;;4989385;28;20096;-63
2023/06/28 03:59:23;;;;;;;5.90;3.22;;;;;;;;;;4973120;28;20117;-61
2023/06/28 04:01:49;;;;;;;9.50;3.40;;;;;;;;;;4990277;28;20058;-62
2023/06/28 04:04:14;;;;;;;5.35;2.92;;;;;;;;;;4992414;28;20077;-62
2023/06/28 04:06:40;;;;;;;7.07;3.33;;;;;;;;;;4992094;28;20161;-62
2023/06/28 04:09:05;;;;;;;9.68;3.53;;;;;;;;;;4991222;28;20030;-62
2023/06/28 04:11:31;;;;;;;8.60;3.63;;;;;;;;;;4991888;28;20034;-62
2023/06/28 04:13:56;;;;;;;6.88;3.30;;;;;;;;;;4991353;28;20427;-62
2023/06/28 04:16:21;;;;;;;6.88;3.40;;;;;;;;;;4992847;28;20031;-63
2023/06/28 04:18:47;;;;;;;8.85;3.60;;;;;;;;;;4991502;28;20027;-63
2023/06/28 04:21:12;;;;;;;4.93;3.13;;;;;;;;;;4992447;28;20027;-63
2023/06/28 04:23:38;;;;;;;7.22;3.20;;;;;;;;;;4991137;28;20032;-62
2023/06/28 04:26:03;;;;;;;7.93;3.17;;;;;;;;;;4991667;28;20034;-63
2023/06/28 04:28:29;;;;;;;8.35;3.47;;;;;;;;;;4992538;28;20121;-62
2023/06/28 04:30:54;;;;;;;5.75;3.13;;;;;;;;;;4995426;28;20072;-63
2023/06/28 04:33:22;;;;;;;7.13;3.30;;;;;;;;;;5011522;28;20069;-62
2023/06/28 04:35:49;;;;;;;6.57;3.25;;;;;;;;;;4995249;28;20031;-64
2023/06/28 04:38:15;;;;;;;9.82;3.10;;;;;;;;;;4996063;28;20042;-61
2023/06/28 04:40:41;;;;;;;9.82;3.40;;;;;;;;;;4996083;28;20053;-63
2023/06/28 04:43:10;;;;;;;11.50;3.70;;;;;;;;;;4995690;28;20074;-62
2023/06/28 04:45:37;;;;;;;6.00;3.20;;;;;;;;;;4996234;28;20093;-62
2023/06/28 04:48:05;;;;;;;10.88;3.42;;;;;;;;;;4995453;28;20122;-63
2023/06/28 04:50:32;;;;;;;9.40;3.53;;;;;;;;;;4996463;28;20054;-62
2023/06/28 04:52:57;;;;;;;8.30;3.42;;;;;;;;;;4995900;28;20030;-62
2023/06/28 04:55:22;;;;;;;7.57;3.70;;;;;;;;;;4996228;28;20065;-62
2023/06/28 04:57:48;;;;;;;9.80;3.50;;;;;;;;;;4994848;28;20091;-63
2023/06/28 05:00:14;;;;;;;6.30;3.10;;;;;;;;;;4995839;28;20037;-63
2023/06/28 05:02:39;;;;;;;8.27;3.58;;;;;;;;;;4994759;28;20030;-62
2023/06/28 05:05:05;;;;;;;6.70;3.13;;;;;;;;;;4994924;28;20034;-63
2023/06/28 05:07:30;;;;;;;5.97;3.40;;;;;;;;;;4995715;28;20052;-61
2023/06/28 05:09:56;;;;;;;8.90;3.53;;;;;;;;;;4994604;28;20034;-62
2023/06/28 05:12:21;;;;;;;7.30;3.65;;;;;;;;;;4994482;28;20034;-63
2023/06/28 05:14:46;;;;;;;7.60;3.50;;;;;;;;;;4995194;28;20037;-64
2023/06/28 05:17:12;;;;;;;7.03;3.50;;;;;;;;;;4996203;28;20031;-62
2023/06/28 05:19:37;;;;;;;8.38;4.05;;;;;;;;;;4995819;28;20038;-62
2023/06/28 05:22:03;;;;;;;8.43;3.72;;;;;;;;;;4995383;28;20199;-62
2023/06/28 05:24:28;;;;;;;13.35;4.10;;;;;;;;;;4994491;28;20058;-62
2023/06/28 05:26:53;;;;;;;8.48;4.10;;;;;;;;;;4993500;28;20030;-62
2023/06/28 05:29:19;;;;;;;11.43;4.38;;;;;;;;;;4995661;28;20348;-62
2023/06/28 05:31:45;;;;;;;7.40;4.13;;;;;;;;;;4994893;28;20053;-62
2023/06/28 05:34:11;;;;;;;8.90;4.32;;;;;;;;;;4995914;28;20456;-61
2023/06/28 05:36:37;;;;;;;10.35;4.03;;;;;;;;;;4995357;28;20471;-62
2023/06/28 05:39:02;;;;;;;10.27;4.22;;;;;;;;;;4994415;28;20062;-61
2023/06/28 05:41:28;;;;;;;10.50;4.50;;;;;;;;;;4995139;28;20442;-62
2023/06/28 05:43:54;;;;;;;9.57;4.40;;;;;;;;;;4994393;28;20070;-62
2023/06/28 05:46:19;;;;;;;8.98;4.30;;;;;;;;;;4995193;28;20522;-62
2023/06/28 05:48:46;;;;;;;9.25;4.28;;;;;;;;;;4994934;28;20037;-61
2023/06/28 05:51:14;;;;;;;9.77;4.20;;;;;;;;;;4994781;28;20065;-61
2023/06/28 05:53:40;;;;;;;9.07;4.38;;;;;;;;;;4994958;28;20037;-62
2023/06/28 05:56:06;;;;;;;10.75;4.90;;;;;;;;;;4994301;28;20054;-62
2023/06/28 05:58:32;;;;;;;9.50;4.78;;;;;;;;;;4994923;28;20066;-61
2023/06/28 06:00:57;;;;;;;11.80;4.97;;;;;;;;;;4993751;28;20026;-63
2023/06/28 06:03:23;;;;;;;9.60;4.47;;;;;;;;;;4994870;28;20418;-61
2023/06/28 06:05:49;;;;;;;10.25;4.88;;;;;;;;;;4994000;28;20030;-63
2023/06/28 06:08:14;;;;;;;11.18;4.97;;;;;;;;;;4995059;28;20037;-62
2023/06/28 06:10:39;;;;;;;8.43;4.55;;;;;;;;;;4994327;28;20057;-62
2023/06/28 06:13:05;;;;;;;10.80;4.50;;;;;;;;;;4993809;28;20031;-62
2023/06/28 06:15:30;;;;;;;10.13;4.40;;;;;;;;;;4994519;28;20044;-62
2023/06/28 06:17:56;;;;;;;9.13;4.00;;;;;;;;;;4993678;28;20028;-62
2023/06/28 06:20:22;;;;;;;9.52;3.85;;;;;;;;;;4994682;28;20122;-62
2023/06/28 06:22:48;;;;;;;8.00;3.60;;;;;;;;;;4993837;28;20459;-63
2023/06/28 06:25:14;;;;;;;13.45;4.15;;;;;;;;;;4994390;28;20034;-62
2023/06/28 06:27:39;;;;;;;10.63;3.75;;;;;;;;;;4994353;28;20053;-62
2023/06/28 06:30:05;;;;;;;8.18;2.97;;;;;;;;;;4992063;28;20030;-62
2023/06/28 06:32:31;;;;;;;9.40;3.30;;;;;;;;;;4994543;28;20072;-62
2023/06/28 06:35:00;;;;;;;7.90;3.42;;;;;;;;;;4993495;28;20062;-62
2023/06/28 06:37:26;;;;;;;12.68;3.20;;;;;;;;;;4994135;28;20042;-62
2023/06/28 06:39:53;;;;;;;8.85;3.38;;;;;;;;;;4993335;28;20026;-62
2023/06/28 06:42:19;;;;;;;8.15;3.08;;;;;;;;;;4994105;28;20138;-62
2023/06/28 06:44:44;;;;;;;7.80;2.60;;;;;;;;;;4992778;28;20121;-62
2023/06/28 06:47:09;;;;;;;8.02;2.72;;;;;;;;;;4993415;28;20022;-62
2023/06/28 06:49:35;;;;;;;7.53;2.90;;;;;;;;;;4992595;28;20038;-62
2023/06/28 06:52:00;;;;;;;6.50;2.30;;;;;;;;;;4992811;28;20061;-62
2023/06/28 06:54:29;;;;;;;6.47;2.45;;;;;;;;;;4994069;28;20042;-62
2023/06/28 06:56:55;;;;;;;6.22;2.47;;;;;;;;;;4992114;28;20181;-62
2023/06/28 06:59:23;;;;;;;6.38;2.53;;;;;;;;;;4992494;28;20041;-61
2023/06/28 07:01:52;;;;;;;5.80;2.20;;;;;;;;;;4993683;28;20120;-62
2023/06/28 07:04:18;;;;;;;6.15;2.72;;;;;;;;;;4993879;28;20026;-62
2023/06/28 07:06:46;;;;;;;6.65;2.67;;;;;;;;;;4993784;28;20041;-62
2023/06/28 07:09:15;;;;;;;7.43;2.63;;;;;;;;;;5007508;28;20347;-62
2023/06/28 07:11:41;;;;;;;7.65;3.10;;;;;;;;;;4993698;28;20196;-62
2023/06/28 07:14:06;;;;;;;9.27;3.58;;;;;;;;;;4991693;28;20034;-62
2023/06/28 07:16:32;;;;;;;10.18;3.20;;;;;;;;;;4993555;28;20030;-62
2023/06/28 07:18:57;;;;;;;12.10;3.53;;;;;;;;;;4992756;28;20042;-62
2023/06/28 07:21:23;;;;;;;11.70;3.50;;;;;;;;;;4993180;28;20158;-62
2023/06/28 07:23:48;;;;;;;8.55;3.42;;;;;;;;;;4993279;28;20117;-62
2023/06/28 07:26:20;;;;;;;9.48;3.67;;;;;;;;;;4992462;28;20375;-62
2023/06/28 07:28:46;;;;;;;8.32;3.17;;;;;;;;;;4993584;28;20022;-62
2023/06/28 07:31:11;;;;;;;10.98;3.03;;;;;;;;;;4992467;28;20022;-62
2023/06/28 07:33:37;;;;;;;11.10;3.30;;;;;;;;;;4993165;28;20058;-62
2023/06/28 07:36:02;;;;;;;8.88;3.25;;;;;;;;;;4992581;28;20108;-62
2023/06/28 07:38:28;;;;;;;11.48;3.40;;;;;;;;;;4992847;28;20435;-62
2023/06/28 07:40:53;;;;;;;13.60;3.97;;;;;;;;;;4992115;28;20070;-62
2023/06/28 07:43:20;;;;;;;9.45;3.40;;;;;;;;;;4992716;28;20097;-62
2023/06/28 07:45:45;;;;;;;8.73;3.40;;;;;;;;;;4992921;28;20034;-62
2023/06/28 07:48:11;;;;;;;12.07;3.83;;;;;;;;;;4992405;28;20100;-62
2023/06/28 07:50:37;;;;;;;11.02;3.90;;;;;;;;;;4991540;28;20379;-62
2023/06/28 07:53:03;;;;;;;8.20;3.78;;;;;;;;;;4991789;28;20027;-62
2023/06/28 07:55:28;;;;;;;9.88;3.67;;;;;;;;;;4992515;28;20030;-62
2023/06/28 07:57:55;;;;;;;9.32;3.60;;;;;;;;;;4992065;28;20069;-62
2023/06/28 08:00:20;;;;;;;11.70;3.97;;;;;;;;;;4992888;28;20077;-62
2023/06/28 08:02:46;;;;;;;12.00;3.90;;;;;;;;;;4992307;28;20030;-61
2023/06/28 08:05:11;;;;;;;9.52;3.55;;;;;;;;;;4989876;28;20246;-62
2023/06/28 08:07:36;;;;;;;6.65;3.10;;;;;;;;;;4992461;28;20026;-62
2023/06/28 08:10:02;;;;;;;10.95;3.72;;;;;;;;;;4991458;28;20042;-63
2023/06/28 08:12:27;;;;;;;7.38;4.05;;;;;;;;;;4992688;28;20022;-62
2023/06/28 08:14:53;;;;;;;10.57;4.60;;;;;;;;;;4992004;28;20073;-62
2023/06/28 08:17:20;;;;;;;10.48;4.63;;;;;;;;;;4992332;28;20037;-62
2023/06/28 08:19:45;;;;;;;9.70;4.25;;;;;;;;;;4992176;28;20133;-62
2023/06/28 08:22:12;;;;;;;13.88;4.55;;;;;;;;;;4991624;28;20438;-63
2023/06/28 08:24:38;;;;;;;10.70;3.50;;;;;;;;;;4991213;28;20026;-62
2023/06/28 08:27:04;;;;;;;8.60;3.38;;;;;;;;;;4991689;28;20089;-64
2023/06/28 08:29:29;;;;;;;6.40;3.00;;;;;;;;;;4992465;28;20089;-62
2023/06/28 08:31:55;;;;;;;8.70;2.55;;;;;;;;;;4990628;28;20038;-62
2023/06/28 08:34:20;;;;;;;5.90;2.30;;;;;;;;;;4992714;28;20064;-62
2023/06/28 08:36:45;;;;;;;4.00;2.30;;;;;;;;;;4992356;28;20035;-62
2023/06/28 08:39:11;;;;;;;4.00;1.77;;;;;;;;;;4992239;28;20034;-63
2023/06/28 08:41:37;;;;;;;3.17;1.77;;;;;;;;;;4992379;28;20386;-62
2023/06/28 08:44:05;;;;;;;3.45;1.73;;;;;;;;;;4990511;28;20030;-63
2023/06/28 08:46:31;;;;;;;9.57;2.20;;;;;;;;;;4992524;28;20030;-62
2023/06/28 08:48:58;;;;;;;6.80;1.85;;;;;;;;;;4990875;28;20161;-64
2023/06/28 08:51:25;;;;;;;5.35;2.30;;;;;;;;;;4992480;28;20041;-61
2023/06/28 08:53:52;;;;;;;7.90;3.20;;;;;;;;;;4992433;28;20062;-63
2023/06/28 08:56:17;;;;;;;5.85;3.28;;;;;;;;;;4991618;28;20026;-62
2023/06/28 08:58:47;;;;;;;6.82;3.30;;;;;;;;;;4992202;28;20113;-62
2023/06/28 09:01:13;;;;;;;8.30;3.42;;;;;;;;;;4991337;28;20030;-62
2023/06/28 09:03:42;;;;;;;7.50;3.20;;;;;;;;;;4991991;28;20046;-62
2023/06/28 09:06:08;;;;;;;7.88;2.90;;;;;;;;;;4991324;28;20034;-61
2023/06/28 09:08:35;;;;;;;9.00;3.00;;;;;;;;;;4992087;28;20038;-62
2023/06/28 09:11:01;;;;;;;7.55;3.13;;;;;;;;;;4990811;28;20117;-62
2023/06/28 09:13:28;;;;;;;7.30;2.90;;;;;;;;;;4991993;28;20040;-61
2023/06/28 09:15:54;;;;;;;10.65;3.20;;;;;;;;;;4994671;28;20030;-61
2023/06/28 09:18:19;;;;;;;7.00;3.20;;;;;;;;;;4994822;28;20085;-61
2023/06/28 09:21:04;;;;;;;6.05;2.67;;;;;;;;;;4995551;28;20030;-61
2023/06/28 09:23:31;;;;;;;8.30;2.85;;;;;;;;;;4995627;28;20058;-61
2023/06/28 09:25:57;;;;;;;8.90;2.90;;;;;;;;;;4995141;28;20030;-61
2023/06/28 09:28:30;;;;;;;8.40;3.38;;;;;;;;;;4977456;28;20057;-61
2023/06/28 09:30:56;;;;;;;8.27;2.92;;;;;;;;;;4995426;28;20491;-61
2023/06/28 09:33:23;;;;;;;8.80;2.90;;;;;;;;;;4994697;28;20037;-61
2023/06/28 09:35:59;;;;;;;8.38;3.20;;;;;;;;;;4995224;28;20442;-62
2023/06/28 09:38:26;;;;;;;7.18;3.22;;;;;;;;;;4995046;28;20154;-62
2023/06/28 09:40:59;;;;;;;9.95;3.70;;;;;;;;;;4993677;28;20034;-62
2023/06/28 09:43:30;;;;;;;10.25;4.00;;;;;;;;;;4994932;28;20045;-61
2023/06/28 09:45:56;;;;;;;8.48;4.03;;;;;;;;;;4995118;28;20030;-64
2023/06/28 09:48:26;;;;;;;9.05;3.58;;;;;;;;;;4994038;28;20034;-62
2023/06/28 09:50:51;;;;;;;8.82;3.70;;;;;;;;;;4995220;28;20054;-62
2023/06/28 09:53:19;;;;;;;7.30;3.60;;;;;;;;;;4994280;28;20070;-62
2023/06/28 09:55:46;;;;;;;9.95;4.30;;;;;;;;;;4994896;28;20041;-62
2023/06/28 09:58:13;;;;;;;7.25;3.80;;;;;;;;;;4993834;28;20026;-62
2023/06/28 10:00:40;;;;;;;8.70;3.80;;;;;;;;;;4994468;28;20030;-62
2023/06/28 10:03:11;;;;;;;9.50;3.63;;;;;;;;;;4994033;28;20058;-61
2023/06/28 10:05:39;;;;;;;8.18;3.47;;;;;;;;;;4994771;28;20129;-62
2023/06/28 10:08:16;;;;;;;10.38;3.67;;;;;;;;;;4993966;28;20030;-62
2023/06/28 10:10:43;;;;;;;9.98;4.10;;;;;;;;;;4994534;28;20062;-63
2023/06/28 10:13:12;;;;;;;8.90;3.70;;;;;;;;;;4994245;28;20026;-63
2023/06/28 10:15:44;;;;;;;11.43;3.33;;;;;;;;;;4994902;28;20034;-66
2023/06/28 10:18:10;;;;;;;8.95;3.75;;;;;;;;;;4994018;28;20101;-63
2023/06/28 10:20:38;;;;;;;8.73;3.92;;;;;;;;;;4994478;28;20479;-62
2023/06/28 10:23:05;;;;;;;9.88;3.60;;;;;;;;;;4993846;28;20038;-62
2023/06/28 10:25:31;;;;;;;9.40;3.97;;;;;;;;;;4994378;28;20026;-62
2023/06/28 10:27:57;;;;;;;12.38;5.25;;;;;;;;;;4993681;28;20041;-62
2023/06/28 10:30:24;;;;;;;12.82;4.95;;;;;;;;;;4992432;28;20026;-63
2023/06/28 10:32:51;;;;;;;7.43;4.85;;;;;;;;;;4994238;28;20050;-62
2023/06/28 10:35:17;;;;;;;13.48;6.20;;;;;;;;;;4993602;28;20066;-63
2023/06/28 10:37:42;;;;;;;12.70;6.53;;;;;;;;;;4994127;28;20034;-62
2023/06/28 10:40:09;;;;;;;7.65;5.53;;;;;;;;;;4993433;28;20100;-62
2023/06/28 10:42:40;;;;;;;13.27;4.75;;;;;;;;;;4993926;28;20154;-62
2023/06/28 10:45:05;;;;;;;;;;;;;;;;;;4993555;28;20022;-63
2023/06/28 10:47:34;;;;;;;11.25;6.13;;;;;;;;;;4993961;28;20374;-63
2023/06/28 10:50:14;;;;;;;10.30;6.32;;;;;;;;;;4993997;28;20030;-62
2023/06/28 10:52:54;;;;;;;12.55;8.23;;;;;;;;;;4993953;28;20035;-62
2023/06/28 10:55:30;;;;;;;18.15;10.02;;;;;;;;;;4993244;28;20038;-62
2023/06/28 10:58:07;;;;;;;19.27;9.80;;;;;;;;;;4993850;28;20038;-62
2023/06/28 11:00:43;;;;;;;17.15;10.13;;;;;;;;;;4993475;28;20387;-62
2023/06/28 11:03:09;;;;;;;15.25;8.50;;;;;;;;;;4992784;28;20080;-62
2023/06/28 11:05:40;;;;;;;13.13;7.40;;;;;;;;;;4993438;28;20030;-61
2023/06/28 11:08:13;;;;;;;14.45;7.72;;;;;;;;;;4992818;28;20058;-62
2023/06/28 11:10:54;;;;;;;14.82;7.63;;;;;;;;;;4993595;28;20026;-62
2023/06/28 11:13:49;;;;;;;15.10;8.02;;;;;;;;;;4992532;28;20532;-62
2023/06/28 11:16:22;;;;;;;12.43;6.75;;;;;;;;;;4992406;28;20035;-63
2023/06/28 11:18:49;;;;;;;14.13;6.78;;;;;;;;;;4993477;28;20125;-61
2023/06/28 11:21:17;;;;;;;14.27;6.68;;;;;;;;;;4992638;28;20071;-63
2023/06/28 11:23:47;;;;;;;13.52;6.53;;;;;;;;;;4993348;28;20042;-62
2023/06/28 11:26:16;;;;;;;13.07;7.00;;;;;;;;;;4992384;28;20026;-63
2023/06/28 11:28:49;;;;;;;13.55;6.20;;;;;;;;;;4993248;28;20497;-62
2023/06/28 11:31:22;;;;;;;11.60;5.95;;;;;;;;;;4992396;28;20412;-62
2023/06/28 11:33:49;;;;;;;12.38;5.63;;;;;;;;;;4993155;28;20494;-62
2023/06/28 11:36:14;;;;;;;11.40;5.68;;;;;;;;;;4992252;28;20062;-63
2023/06/28 11:38:44;;;;;;;11.40;5.47;;;;;;;;;;4993179;28;20023;-62
2023/06/28 11:41:10;;;;;;;14.17;5.37;;;;;;;;;;4991964;28;20092;-62
2023/06/28 11:43:36;;;;;;;13.02;5.38;;;;;;;;;;4992950;28;20263;-62
2023/06/28 11:46:02;;;;;;;11.57;5.32;;;;;;;;;;4992639;28;20435;-62
2023/06/28 11:48:28;;;;;;;16.20;5.57;;;;;;;;;;4991854;28;20030;-61
2023/06/28 11:51:00;;;;;;;9.70;4.80;;;;;;;;;;4993083;28;20034;-61
2023/06/28 11:53:28;;;;;;;18.08;6.15;;;;;;;;;;4990715;28;20035;-61
2023/06/28 11:55:54;;;;;;;11.02;4.50;;;;;;;;;;4991804;28;20053;-61
2023/06/28 11:58:33;;;;;;;13.60;5.18;;;;;;;;;;4991730;28;20483;-62
2023/06/28 12:01:00;;;;;;;9.85;5.45;;;;;;;;;;4991820;28;20030;-62
2023/06/28 12:03:35;;;;;;;12.40;4.85;;;;;;;;;;4990446;28;20125;-62
2023/06/28 12:06:03;;;;;;;12.20;4.32;;;;;;;;;;4992663;28;20490;-62
2023/06/28 12:08:35;;;;;;;11.32;4.18;;;;;;;;;;4992083;28;20053;-62
2023/06/28 12:11:08;;;;;;;9.90;4.25;;;;;;;;;;4992886;28;20037;-62
2023/06/28 12:13:33;;;;;;;9.13;4.20;;;;;;;;;;4993041;28;20357;-62
2023/06/28 12:16:13;;;;;;;12.18;4.20;;;;;;;;;;4993052;28;20448;-62
2023/06/28 12:18:59;;;;;;;10.63;4.20;;;;;;;;;;4992641;28;20030;-62
2023/06/28 12:21:26;;;;;;;9.98;4.47;;;;;;;;;;4991831;28;20023;-62
2023/06/28 12:23:52;;;;;;;11.45;4.30;;;;;;;;;;4992515;28;20041;-62
2023/06/28 12:26:20;;;;;;;13.43;4.82;;;;;;;;;;4990251;28;20129;-63
2023/06/28 12:28:48;;;;;;;11.38;3.90;;;;;;;;;;4992420;28;20530;-62
2023/06/28 12:31:15;;;;;;;10.35;4.03;;;;;;;;;;4991575;28;20036;-63
2023/06/28 12:33:41;;;;;;;12.15;4.55;;;;;;;;;;4992224;28;20030;-62
2023/06/28 12:36:06;;;;;;;9.13;3.75;;;;;;;;;;4992053;28;20368;-62
2023/06/28 12:38:32;;;;;;;9.43;3.47;;;;;;;;;;4991171;28;20113;-63
2023/06/28 12:41:04;;;;;;;10.55;4.07;;;;;;;;;;4991922;28;20039;-62
2023/06/28 12:43:30;;;;;;;12.57;4.07;;;;;;;;;;4991149;28;20169;-63
2023/06/28 12:45:56;;;;;;;11.43;3.80;;;;;;;;;;4992177;28;20126;-63
2023/06/28 12:48:22;;;;;;;11.10;3.90;;;;;;;;;;4991423;28;20113;-63
2023/06/28 12:50:52;;;;;;;9.43;3.95;;;;;;;;;;4994714;28;20041;-62
2023/06/28 12:53:18;;;;;;;11.30;4.00;;;;;;;;;;4995285;28;20110;-62
2023/06/28 12:55:43;;;;;;;12.15;3.90;;;;;;;;;;4996129;28;20042;-62
2023/06/28 12:58:10;;;;;;;9.00;3.80;;;;;;;;;;4995987;28;20034;-63
2023/06/28 13:00:36;;;;;;;10.55;3.53;;;;;;;;;;4994188;28;20061;-63
2023/06/28 13:03:05;;;;;;;7.45;3.50;;;;;;;;;;4995767;28;20117;-62
2023/06/28 13:05:30;;;;;;;12.98;4.10;;;;;;;;;;4994896;28;20636;-63
2023/06/28 13:07:57;;;;;;;10.27;3.95;;;;;;;;;;4995886;28;20034;-63
2023/06/28 13:10:22;;;;;;;8.68;3.38;;;;;;;;;;4994929;28;20030;-62
2023/06/28 13:12:48;;;;;;;11.25;3.50;;;;;;;;;;4995546;28;20049;-62
2023/06/28 13:15:13;;;;;;;7.68;4.00;;;;;;;;;;4993635;28;20032;-62
2023/06/28 13:17:39;;;;;;;11.18;4.00;;;;;;;;;;4995347;28;20026;-62
2023/06/28 13:20:05;;;;;;;13.50;3.90;;;;;;;;;;4994388;28;20429;-62
2023/06/28 13:22:30;;;;;;;9.02;4.40;;;;;;;;;;4994455;28;20038;-62
2023/06/28 13:24:56;;;;;;;12.52;4.22;;;;;;;;;;4995466;28;20442;-62
2023/06/28 13:27:21;;;;;;;14.52;4.28;;;;;;;;;;4994868;28;20030;-62
2023/06/28 13:29:46;;;;;;;11.20;4.00;;;;;;;;;;4995367;28;20535;-62
2023/06/28 13:32:12;;;;;;;13.02;4.35;;;;;;;;;;4995547;28;20085;-63
2023/06/28 13:34:38;;;;;;;9.07;3.92;;;;;;;;;;4995615;28;20037;-62
2023/06/28 13:37:03;;;;;;;13.93;5.30;;;;;;;;;;4995341;28;20467;-62
2023/06/28 13:39:29;;;;;;;9.43;4.25;;;;;;;;;;4993686;28;20033;-62
2023/06/28 13:41:54;;;;;;;9.52;3.88;;;;;;;;;;4995356;28;20054;-62
2023/06/28 13:44:19;;;;;;;9.05;4.28;;;;;;;;;;4994590;28;20026;-62
2023/06/28 13:46:45;;;;;;;13.57;4.30;;;;;;;;;;4995372;28;20038;-62
2023/06/28 13:49:10;;;;;;;9.32;4.18;;;;;;;;;;4995255;28;20062;-62
2023/06/28 13:51:35;;;;;;;11.32;4.43;;;;;;;;;;4994212;28;20076;-62
2023/06/28 13:54:01;;;;;;;8.77;3.95;;;;;;;;;;4994731;28;20030;-62
2023/06/28 13:56:26;;;;;;;10.70;4.57;;;;;;;;;;4994190;28;20109;-62
2023/06/28 13:58:52;;;;;;;9.02;4.43;;;;;;;;;;4994939;28;20371;-62
2023/06/28 14:01:17;;;;;;;10.30;4.05;;;;;;;;;;4994309;28;20034;-63
2023/06/28 14:03:43;;;;;;;13.25;4.63;;;;;;;;;;4994642;28;20034;-63
2023/06/28 14:06:08;;;;;;;9.60;4.30;;;;;;;;;;4994917;28;20367;-62
2023/06/28 14:08:33;;;;;;;11.25;3.97;;;;;;;;;;4993983;28;20030;-62
2023/06/28 14:10:59;;;;;;;10.18;4.35;;;;;;;;;;4994676;28;20468;-62
2023/06/28 14:13:24;;;;;;;8.93;4.38;;;;;;;;;;4993311;28;20073;-63
2023/06/28 14:15:50;;;;;;;10.70;4.20;;;;;;;;;;4993433;28;20034;-62
2023/06/28 14:18:15;;;;;;;11.23;4.20;;;;;;;;;;4994303;28;20034;-63
2023/06/28 14:20:40;;;;;;;12.20;5.05;;;;;;;;;;4995065;28;20030;-62
2023/06/28 14:23:06;;;;;;;9.95;4.30;;;;;;;;;;4994944;28;20041;-63
2023/06/28 14:25:31;;;;;;;12.68;4.18;;;;;;;;;;4994288;28;20038;-62
2023/06/28 14:27:56;;;;;;;10.18;4.00;;;;;;;;;;4994942;28;20042;-62
2023/06/28 14:30:26;;;;;;;9.43;3.97;;;;;;;;;;4994749;28;20022;-62
2023/06/28 14:32:52;;;;;;;13.52;4.15;;;;;;;;;;4996511;28;20104;-63
2023/06/28 14:35:19;;;;;;;11.13;4.55;;;;;;;;;;4996803;28;20091;-63